sensor_id;sensor_type;location;lat;lon;timestamp;pressure;altitude;pressure_sealevel;temperature;humidity
36502;BME280;25393;46.108;3.390;2022-08-02T00:00:50;98171.56;;;21.88;66.46
36502;BME280;25393;46.108;3.390;2022-08-02T00:03:21;98182.28;;;21.95;67.16
36502;BME280;25393;46.108;3.390;2022-08-02T00:05:53;98160.81;;;21.77;67.90
36502;BME280;25393;46.108;3.390;2022-08-02T00:08:22;98165.94;;;21.78;68.66
36502;BME280;25393;46.108;3.390;2022-08-02T00:10:49;98170.53;;;21.78;68.90
36502;BME280;25393;46.108;3.390;2022-08-02T00:13:17;98180.97;;;21.86;68.76
36502;BME280;25393;46.108;3.390;2022-08-02T00:15:43;98162.00;;;21.69;69.33
36502;BME280;25393;46.108;3.390;2022-08-02T00:18:10;98185.19;;;21.82;69.42
36502;BME280;25393;46.108;3.390;2022-08-02T00:20:36;98183.22;;;21.77;69.61
36502;BME280;25393;46.108;3.390;2022-08-02T00:23:03;98170.09;;;21.69;69.93
36502;BME280;25393;46.108;3.390;2022-08-02T00:25:30;98180.03;;;21.80;69.52
36502;BME280;25393;46.108;3.390;2022-08-02T00:27:57;98174.16;;;21.72;69.92
36502;BME280;25393;46.108;3.390;2022-08-02T00:30:23;98180.88;;;21.81;70.23
36502;BME280;25393;46.108;3.390;2022-08-02T00:32:53;98168.56;;;21.73;70.23
36502;BME280;25393;46.108;3.390;2022-08-02T00:35:23;98172.88;;;21.74;70.27
36502;BME280;25393;46.108;3.390;2022-08-02T00:37:52;98158.13;;;21.65;69.78
36502;BME280;25393;46.108;3.390;2022-08-02T00:40:23;98180.75;;;21.76;69.91
36502;BME280;25393;46.108;3.390;2022-08-02T00:43:22;98173.13;;;21.61;69.12
36502;BME280;25393;46.108;3.390;2022-08-02T00:45:48;98173.03;;;21.56;69.34
36502;BME280;25393;46.108;3.390;2022-08-02T00:48:29;98184.66;;;21.57;70.36
36502;BME280;25393;46.108;3.390;2022-08-02T00:50:57;98169.84;;;21.48;70.95
36502;BME280;25393;46.108;3.390;2022-08-02T00:53:24;98170.34;;;21.45;70.35
36502;BME280;25393;46.108;3.390;2022-08-02T00:55:51;98175.84;;;21.50;70.79
36502;BME280;25393;46.108;3.390;2022-08-02T00:58:18;98168.94;;;21.42;71.65
36502;BME280;25393;46.108;3.390;2022-08-02T01:00:45;98165.19;;;21.31;71.79
36502;BME280;25393;46.108;3.390;2022-08-02T01:03:11;98176.53;;;21.33;72.58
36502;BME280;25393;46.108;3.390;2022-08-02T01:05:38;98150.16;;;21.12;72.35
36502;BME280;25393;46.108;3.390;2022-08-02T01:08:25;98171.59;;;21.19;73.05
36502;BME280;25393;46.108;3.390;2022-08-02T01:10:56;98162.81;;;21.12;73.11
36502;BME280;25393;46.108;3.390;2022-08-02T01:13:24;98170.28;;;21.10;73.80
36502;BME280;25393;46.108;3.390;2022-08-02T01:15:59;98153.97;;;20.93;74.54
36502;BME280;25393;46.108;3.390;2022-08-02T01:18:40;98171.09;;;20.99;75.24
36502;BME280;25393;46.108;3.390;2022-08-02T01:21:25;98151.72;;;20.90;75.24
36502;BME280;25393;46.108;3.390;2022-08-02T01:24:20;98169.56;;;21.03;75.29
36502;BME280;25393;46.108;3.390;2022-08-02T01:26:50;98173.09;;;21.03;75.41
36502;BME280;25393;46.108;3.390;2022-08-02T01:32:10;98162.06;;;21.05;75.22
36502;BME280;25393;46.108;3.390;2022-08-02T01:34:46;98161.13;;;20.99;75.05
36502;BME280;25393;46.108;3.390;2022-08-02T01:37:48;98157.75;;;21.04;74.43
36502;BME280;25393;46.108;3.390;2022-08-02T01:40:27;98152.00;;;21.00;74.65
36502;BME280;25393;46.108;3.390;2022-08-02T01:42:55;98136.19;;;20.92;73.93
36502;BME280;25393;46.108;3.390;2022-08-02T01:45:26;98147.88;;;20.98;73.48
36502;BME280;25393;46.108;3.390;2022-08-02T01:47:55;98148.94;;;20.97;74.48
36502;BME280;25393;46.108;3.390;2022-08-02T01:50:26;98156.69;;;20.93;74.74
36502;BME280;25393;46.108;3.390;2022-08-02T01:52:56;98158.78;;;20.91;74.60
36502;BME280;25393;46.108;3.390;2022-08-02T01:55:33;98157.22;;;20.83;74.01
36502;BME280;25393;46.108;3.390;2022-08-02T01:58:23;98159.31;;;20.70;73.13
36502;BME280;25393;46.108;3.390;2022-08-02T02:00:52;98151.53;;;20.50;73.28
36502;BME280;25393;46.108;3.390;2022-08-02T02:03:23;98127.72;;;20.35;72.58
36502;BME280;25393;46.108;3.390;2022-08-02T02:05:53;98153.50;;;20.43;73.28
36502;BME280;25393;46.108;3.390;2022-08-02T02:08:25;98154.91;;;20.46;74.10
36502;BME280;25393;46.108;3.390;2022-08-02T02:10:55;98137.28;;;20.31;74.62
36502;BME280;25393;46.108;3.390;2022-08-02T02:13:23;98136.09;;;20.27;74.79
36502;BME280;25393;46.108;3.390;2022-08-02T02:16:02;98133.47;;;20.21;73.99
36502;BME280;25393;46.108;3.390;2022-08-02T02:18:31;98134.97;;;20.17;75.42
36502;BME280;25393;46.108;3.390;2022-08-02T02:20:59;98145.44;;;20.25;76.03
36502;BME280;25393;46.108;3.390;2022-08-02T02:23:26;98151.47;;;20.20;76.12
36502;BME280;25393;46.108;3.390;2022-08-02T02:25:58;98147.97;;;20.20;75.62
36502;BME280;25393;46.108;3.390;2022-08-02T02:28:30;98148.78;;;20.20;75.21
36502;BME280;25393;46.108;3.390;2022-08-02T02:31:02;98139.53;;;20.16;75.49
36502;BME280;25393;46.108;3.390;2022-08-02T02:33:32;98150.75;;;20.13;77.81
36502;BME280;25393;46.108;3.390;2022-08-02T02:36:01;98149.56;;;20.09;78.10
36502;BME280;25393;46.108;3.390;2022-08-02T02:38:30;98151.66;;;20.07;78.71
36502;BME280;25393;46.108;3.390;2022-08-02T02:41:00;98139.78;;;19.97;77.73
36502;BME280;25393;46.108;3.390;2022-08-02T02:43:29;98148.03;;;20.02;77.55
36502;BME280;25393;46.108;3.390;2022-08-02T02:45:58;98136.28;;;19.96;77.53
36502;BME280;25393;46.108;3.390;2022-08-02T02:48:26;98110.59;;;19.82;76.84
36502;BME280;25393;46.108;3.390;2022-08-02T02:50:55;98118.09;;;19.80;76.37
36502;BME280;25393;46.108;3.390;2022-08-02T02:53:23;98125.03;;;19.87;76.77
36502;BME280;25393;46.108;3.390;2022-08-02T02:55:51;98112.09;;;19.78;78.24
36502;BME280;25393;46.108;3.390;2022-08-02T02:58:28;98130.81;;;19.84;78.49
36502;BME280;25393;46.108;3.390;2022-08-02T03:00:56;98137.78;;;19.92;78.01
36502;BME280;25393;46.108;3.390;2022-08-02T03:03:43;98135.31;;;19.90;78.52
36502;BME280;25393;46.108;3.390;2022-08-02T03:06:10;98128.97;;;19.85;79.99
36502;BME280;25393;46.108;3.390;2022-08-02T03:08:41;98141.97;;;19.88;78.69
36502;BME280;25393;46.108;3.390;2022-08-02T03:11:09;98123.91;;;19.77;78.32
36502;BME280;25393;46.108;3.390;2022-08-02T03:13:36;98135.09;;;19.74;78.20
36502;BME280;25393;46.108;3.390;2022-08-02T03:16:04;98136.63;;;19.70;78.35
36502;BME280;25393;46.108;3.390;2022-08-02T03:18:33;98119.38;;;19.59;78.49
36502;BME280;25393;46.108;3.390;2022-08-02T03:21:01;98133.75;;;19.65;77.28
36502;BME280;25393;46.108;3.390;2022-08-02T03:23:28;98124.13;;;19.57;77.70
36502;BME280;25393;46.108;3.390;2022-08-02T03:25:55;98114.47;;;19.50;78.40
36502;BME280;25393;46.108;3.390;2022-08-02T03:28:22;98117.34;;;19.55;78.23
36502;BME280;25393;46.108;3.390;2022-08-02T03:30:49;98121.75;;;19.49;78.25
36502;BME280;25393;46.108;3.390;2022-08-02T03:33:23;98126.59;;;19.59;78.09
36502;BME280;25393;46.108;3.390;2022-08-02T03:35:56;98115.19;;;19.45;78.63
36502;BME280;25393;46.108;3.390;2022-08-02T03:38:24;98127.63;;;19.58;77.99
36502;BME280;25393;46.108;3.390;2022-08-02T03:40:54;98110.44;;;19.40;77.20
36502;BME280;25393;46.108;3.390;2022-08-02T03:43:24;98117.88;;;19.45;78.09
36502;BME280;25393;46.108;3.390;2022-08-02T03:45:54;98099.13;;;19.32;77.21
36502;BME280;25393;46.108;3.390;2022-08-02T03:48:22;98106.69;;;19.23;78.62
36502;BME280;25393;46.108;3.390;2022-08-02T03:51:00;98132.78;;;19.41;77.72
36502;BME280;25393;46.108;3.390;2022-08-02T03:53:28;98115.50;;;19.30;78.06
36502;BME280;25393;46.108;3.390;2022-08-02T03:55:55;98110.34;;;19.29;79.67
36502;BME280;25393;46.108;3.390;2022-08-02T03:58:23;98109.75;;;19.27;79.54
36502;BME280;25393;46.108;3.390;2022-08-02T04:00:56;98110.94;;;19.31;79.74
36502;BME280;25393;46.108;3.390;2022-08-02T04:03:24;98116.41;;;19.24;79.96
36502;BME280;25393;46.108;3.390;2022-08-02T04:05:51;98139.16;;;19.40;79.82
36502;BME280;25393;46.108;3.390;2022-08-02T04:08:30;98113.72;;;19.24;80.62
36502;BME280;25393;46.108;3.390;2022-08-02T04:11:03;98104.06;;;19.17;79.33
36502;BME280;25393;46.108;3.390;2022-08-02T04:13:48;98131.63;;;19.30;79.59
36502;BME280;25393;46.108;3.390;2022-08-02T04:16:41;98112.72;;;19.19;80.05
36502;BME280;25393;46.108;3.390;2022-08-02T04:19:13;98131.13;;;19.15;80.06
36502;BME280;25393;46.108;3.390;2022-08-02T04:21:42;98132.09;;;19.03;80.38
36502;BME280;25393;46.108;3.390;2022-08-02T04:24:29;98113.25;;;18.84;80.50
36502;BME280;25393;46.108;3.390;2022-08-02T04:26:59;98132.91;;;19.03;81.04
36502;BME280;25393;46.108;3.390;2022-08-02T04:29:47;98138.69;;;19.00;80.33
36502;BME280;25393;46.108;3.390;2022-08-02T04:32:17;98126.16;;;18.94;81.00
36502;BME280;25393;46.108;3.390;2022-08-02T04:34:46;98136.47;;;18.97;81.43
36502;BME280;25393;46.108;3.390;2022-08-02T04:37:34;98131.22;;;18.84;83.52
36502;BME280;25393;46.108;3.390;2022-08-02T04:40:00;98142.97;;;18.83;84.89
36502;BME280;25393;46.108;3.390;2022-08-02T04:42:27;98148.97;;;18.85;85.45
36502;BME280;25393;46.108;3.390;2022-08-02T04:44:54;98158.38;;;18.94;84.63
36502;BME280;25393;46.108;3.390;2022-08-02T04:47:20;98150.66;;;19.04;82.77
36502;BME280;25393;46.108;3.390;2022-08-02T04:50:08;98138.94;;;18.99;82.06
36502;BME280;25393;46.108;3.390;2022-08-02T04:52:35;98164.25;;;19.09;83.01
36502;BME280;25393;46.108;3.390;2022-08-02T04:55:02;98139.38;;;18.95;83.52
36502;BME280;25393;46.108;3.390;2022-08-02T04:57:28;98144.84;;;19.07;85.87
36502;BME280;25393;46.108;3.390;2022-08-02T05:00:18;98163.44;;;19.09;86.94
36502;BME280;25393;46.108;3.390;2022-08-02T05:02:48;98162.47;;;19.03;88.20
36502;BME280;25393;46.108;3.390;2022-08-02T05:05:17;98140.28;;;18.83;89.34
36502;BME280;25393;46.108;3.390;2022-08-02T05:07:44;98152.63;;;18.90;89.93
36502;BME280;25393;46.108;3.390;2022-08-02T05:10:10;98159.41;;;18.93;90.36
36502;BME280;25393;46.108;3.390;2022-08-02T05:12:39;98163.03;;;18.80;91.35
36502;BME280;25393;46.108;3.390;2022-08-02T05:15:06;98161.97;;;18.88;90.89
36502;BME280;25393;46.108;3.390;2022-08-02T05:17:38;98166.38;;;19.01;90.46
36502;BME280;25393;46.108;3.390;2022-08-02T05:20:16;98152.97;;;19.01;89.67
36502;BME280;25393;46.108;3.390;2022-08-02T05:22:44;98163.75;;;19.19;89.19
36502;BME280;25393;46.108;3.390;2022-08-02T05:25:11;98170.28;;;19.29;89.39
36502;BME280;25393;46.108;3.390;2022-08-02T05:27:38;98165.63;;;19.43;89.04
36502;BME280;25393;46.108;3.390;2022-08-02T05:30:05;98172.97;;;19.54;89.24
36502;BME280;25393;46.108;3.390;2022-08-02T05:32:32;98162.50;;;19.64;88.86
36502;BME280;25393;46.108;3.390;2022-08-02T05:35:00;98163.19;;;19.78;88.21
36502;BME280;25393;46.108;3.390;2022-08-02T05:37:28;98172.38;;;19.88;87.48
36502;BME280;25393;46.108;3.390;2022-08-02T05:39:58;98172.66;;;19.99;87.18
36502;BME280;25393;46.108;3.390;2022-08-02T05:42:30;98174.38;;;20.11;86.44
36502;BME280;25393;46.108;3.390;2022-08-02T05:44:57;98174.97;;;20.13;85.35
36502;BME280;25393;46.108;3.390;2022-08-02T05:47:25;98166.88;;;20.13;84.95
36502;BME280;25393;46.108;3.390;2022-08-02T05:49:56;98171.03;;;20.16;85.06
36502;BME280;25393;46.108;3.390;2022-08-02T05:52:25;98174.44;;;20.23;84.89
36502;BME280;25393;46.108;3.390;2022-08-02T06:05:14;98173.63;;;20.04;85.76
36502;BME280;25393;46.108;3.390;2022-08-02T06:07:43;98178.13;;;19.92;86.88
36502;BME280;25393;46.108;3.390;2022-08-02T06:10:12;98175.88;;;19.71;90.07
36502;BME280;25393;46.108;3.390;2022-08-02T06:15:41;98168.41;;;19.73;91.63
36502;BME280;25393;46.108;3.390;2022-08-02T06:18:22;98170.22;;;19.97;91.18
36502;BME280;25393;46.108;3.390;2022-08-02T06:20:56;98168.69;;;20.19;89.56
36502;BME280;25393;46.108;3.390;2022-08-02T06:23:44;98168.59;;;20.44;88.64
36502;BME280;25393;46.108;3.390;2022-08-02T06:26:25;98163.75;;;20.64;87.15
36502;BME280;25393;46.108;3.390;2022-08-02T06:28:53;98158.53;;;20.81;85.29
36502;BME280;25393;46.108;3.390;2022-08-02T06:31:20;98149.06;;;21.02;83.64
36502;BME280;25393;46.108;3.390;2022-08-02T06:33:48;98158.72;;;21.21;83.00
36502;BME280;25393;46.108;3.390;2022-08-02T06:39:13;98153.34;;;21.56;81.25
36502;BME280;25393;46.108;3.390;2022-08-02T06:41:43;98154.59;;;21.76;80.45
36502;BME280;25393;46.108;3.390;2022-08-02T06:44:09;98143.19;;;21.98;79.47
36502;BME280;25393;46.108;3.390;2022-08-02T06:46:57;98143.94;;;22.21;75.45
36502;BME280;25393;46.108;3.390;2022-08-02T06:49:39;98146.44;;;22.39;73.14
36502;BME280;25393;46.108;3.390;2022-08-02T06:52:27;98134.84;;;22.56;71.57
36502;BME280;25393;46.108;3.390;2022-08-02T06:54:57;98142.53;;;22.75;69.51
36502;BME280;25393;46.108;3.390;2022-08-02T06:57:24;98137.63;;;22.89;66.50
36502;BME280;25393;46.108;3.390;2022-08-02T06:59:51;98138.38;;;23.01;65.85
36502;BME280;25393;46.108;3.390;2022-08-02T07:02:17;98143.84;;;23.23;65.16
36502;BME280;25393;46.108;3.390;2022-08-02T07:04:46;98141.63;;;23.36;64.38
36502;BME280;25393;46.108;3.390;2022-08-02T07:07:12;98135.97;;;23.55;64.59
36502;BME280;25393;46.108;3.390;2022-08-02T07:09:39;98148.56;;;23.66;65.05
36502;BME280;25393;46.108;3.390;2022-08-02T07:12:26;98146.88;;;23.60;67.35
36502;BME280;25393;46.108;3.390;2022-08-02T07:14:53;98147.09;;;23.75;67.67
36502;BME280;25393;46.108;3.390;2022-08-02T07:17:22;98139.59;;;23.82;67.08
36502;BME280;25393;46.108;3.390;2022-08-02T07:19:51;98151.09;;;23.72;67.25
36502;BME280;25393;46.108;3.390;2022-08-02T07:22:18;98152.03;;;23.61;67.56
36502;BME280;25393;46.108;3.390;2022-08-02T07:24:51;98154.38;;;23.74;67.22
36502;BME280;25393;46.108;3.390;2022-08-02T07:27:22;98153.75;;;23.89;65.67
36502;BME280;25393;46.108;3.390;2022-08-02T07:29:52;98146.09;;;23.81;66.54
36502;BME280;25393;46.108;3.390;2022-08-02T07:32:24;98154.22;;;24.24;65.70
36502;BME280;25393;46.108;3.390;2022-08-02T07:34:52;98152.03;;;24.75;64.94
36502;BME280;25393;46.108;3.390;2022-08-02T07:37:29;98159.47;;;25.16;61.81
36502;BME280;25393;46.108;3.390;2022-08-02T07:40:16;98152.75;;;25.24;60.10
36502;BME280;25393;46.108;3.390;2022-08-02T07:42:47;98153.47;;;25.46;59.82
36502;BME280;25393;46.108;3.390;2022-08-02T07:45:14;98155.06;;;25.79;58.55
36502;BME280;25393;46.108;3.390;2022-08-02T07:47:42;98157.53;;;25.44;59.78
36502;BME280;25393;46.108;3.390;2022-08-02T07:50:11;98157.53;;;25.49;60.18
36502;BME280;25393;46.108;3.390;2022-08-02T07:52:42;98159.91;;;25.72;58.20
36502;BME280;25393;46.108;3.390;2022-08-02T07:55:10;98153.94;;;25.75;58.25
36502;BME280;25393;46.108;3.390;2022-08-02T07:57:38;98154.25;;;25.83;57.77
36502;BME280;25393;46.108;3.390;2022-08-02T08:00:12;98157.53;;;25.49;58.94
36502;BME280;25393;46.108;3.390;2022-08-02T08:02:39;98150.63;;;25.63;58.58
36502;BME280;25393;46.108;3.390;2022-08-02T08:05:06;98148.47;;;25.65;58.02
36502;BME280;25393;46.108;3.390;2022-08-02T08:07:33;98151.66;;;25.57;58.46
36502;BME280;25393;46.108;3.390;2022-08-02T08:10:00;98145.41;;;26.08;57.81
36502;BME280;25393;46.108;3.390;2022-08-02T08:12:27;98144.78;;;26.58;55.64
36502;BME280;25393;46.108;3.390;2022-08-02T08:14:53;98139.44;;;27.09;55.42
36502;BME280;25393;46.108;3.390;2022-08-02T08:17:20;98135.84;;;27.64;52.24
36502;BME280;25393;46.108;3.390;2022-08-02T08:19:47;98140.19;;;27.65;51.96
36502;BME280;25393;46.108;3.390;2022-08-02T08:22:20;98132.16;;;28.09;51.74
36502;BME280;25393;46.108;3.390;2022-08-02T08:24:48;98136.53;;;28.59;50.79
36502;BME280;25393;46.108;3.390;2022-08-02T08:27:24;98125.75;;;28.83;48.16
36502;BME280;25393;46.108;3.390;2022-08-02T08:29:51;98120.09;;;29.08;48.82
36502;BME280;25393;46.108;3.390;2022-08-02T08:32:17;98121.38;;;29.49;47.93
36502;BME280;25393;46.108;3.390;2022-08-02T08:34:45;98110.56;;;29.39;45.89
36502;BME280;25393;46.108;3.390;2022-08-02T08:37:13;98128.44;;;29.27;46.86
36502;BME280;25393;46.108;3.390;2022-08-02T08:39:47;98130.59;;;29.58;45.81
36502;BME280;25393;46.108;3.390;2022-08-02T08:42:23;98115.19;;;29.91;44.43
36502;BME280;25393;46.108;3.390;2022-08-02T08:44:53;98123.34;;;29.96;42.81
36502;BME280;25393;46.108;3.390;2022-08-02T08:47:22;98128.16;;;29.23;45.39
36502;BME280;25393;46.108;3.390;2022-08-02T08:49:53;98119.66;;;29.82;44.91
36502;BME280;25393;46.108;3.390;2022-08-02T08:52:23;98115.75;;;29.07;44.78
36502;BME280;25393;46.108;3.390;2022-08-02T08:54:53;98121.41;;;29.73;42.13
36502;BME280;25393;46.108;3.390;2022-08-02T08:57:21;98121.91;;;30.22;42.09
36502;BME280;25393;46.108;3.390;2022-08-02T08:59:48;98120.78;;;30.47;40.95
36502;BME280;25393;46.108;3.390;2022-08-02T09:02:17;98115.13;;;30.95;40.14
36502;BME280;25393;46.108;3.390;2022-08-02T09:04:49;98119.47;;;31.14;40.07
36502;BME280;25393;46.108;3.390;2022-08-02T09:07:22;98102.41;;;31.50;39.41
36502;BME280;25393;46.108;3.390;2022-08-02T09:09:48;98115.19;;;31.87;38.19
36502;BME280;25393;46.108;3.390;2022-08-02T09:12:18;98129.53;;;30.68;36.69
36502;BME280;25393;46.108;3.390;2022-08-02T09:14:48;98113.50;;;30.94;38.57
36502;BME280;25393;46.108;3.390;2022-08-02T09:17:16;98121.06;;;31.66;37.81
36502;BME280;25393;46.108;3.390;2022-08-02T09:19:43;98116.19;;;32.18;36.04
36502;BME280;25393;46.108;3.390;2022-08-02T09:22:12;98123.63;;;32.67;33.56
36502;BME280;25393;46.108;3.390;2022-08-02T09:24:49;98125.03;;;33.23;32.27
36502;BME280;25393;46.108;3.390;2022-08-02T09:27:19;98116.97;;;33.57;32.50
36502;BME280;25393;46.108;3.390;2022-08-02T09:29:51;98115.97;;;33.44;32.58
36502;BME280;25393;46.108;3.390;2022-08-02T09:32:45;98113.25;;;33.84;32.51
36502;BME280;25393;46.108;3.390;2022-08-02T09:35:29;98113.22;;;34.15;32.22
36502;BME280;25393;46.108;3.390;2022-08-02T09:38:16;98111.66;;;34.56;31.41
36502;BME280;25393;46.108;3.390;2022-08-02T09:40:43;98108.63;;;34.84;29.95
36502;BME280;25393;46.108;3.390;2022-08-02T09:43:09;98101.81;;;34.81;30.08
36502;BME280;25393;46.108;3.390;2022-08-02T09:45:36;98118.16;;;35.21;29.86
36502;BME280;25393;46.108;3.390;2022-08-02T09:48:06;98112.47;;;35.43;28.82
36502;BME280;25393;46.108;3.390;2022-08-02T09:50:36;98099.56;;;35.00;29.44
36502;BME280;25393;46.108;3.390;2022-08-02T09:53:03;98111.66;;;35.34;30.23
36502;BME280;25393;46.108;3.390;2022-08-02T09:55:30;98110.94;;;35.71;30.21
36502;BME280;25393;46.108;3.390;2022-08-02T09:57:57;98101.19;;;35.74;29.70
36502;BME280;25393;46.108;3.390;2022-08-02T10:00:23;98106.81;;;33.57;30.53
36502;BME280;25393;46.108;3.390;2022-08-02T10:03:10;98083.38;;;33.91;31.42
36502;BME280;25393;46.108;3.390;2022-08-02T10:05:53;98101.16;;;35.19;30.94
36502;BME280;25393;46.108;3.390;2022-08-02T10:08:28;98093.63;;;35.45;29.46
36502;BME280;25393;46.108;3.390;2022-08-02T10:10:59;98086.63;;;36.02;29.13
36502;BME280;25393;46.108;3.390;2022-08-02T10:13:33;98093.47;;;35.50;30.60
36502;BME280;25393;46.108;3.390;2022-08-02T10:16:02;98083.34;;;36.09;29.71
36502;BME280;25393;46.108;3.390;2022-08-02T10:18:29;98085.50;;;36.24;29.09
36502;BME280;25393;46.108;3.390;2022-08-02T10:21:10;98078.50;;;36.56;28.61
36502;BME280;25393;46.108;3.390;2022-08-02T10:23:38;98080.97;;;36.90;27.84
36502;BME280;25393;46.108;3.390;2022-08-02T10:26:06;98088.31;;;37.07;27.34
36502;BME280;25393;46.108;3.390;2022-08-02T10:28:34;98089.13;;;37.20;25.78
36502;BME280;25393;46.108;3.390;2022-08-02T10:31:04;98088.38;;;37.31;27.21
36502;BME280;25393;46.108;3.390;2022-08-02T10:33:34;98087.56;;;36.36;27.61
36502;BME280;25393;46.108;3.390;2022-08-02T10:36:03;98091.28;;;36.11;27.71
36502;BME280;25393;46.108;3.390;2022-08-02T10:38:33;98082.56;;;36.91;27.98
36502;BME280;25393;46.108;3.390;2022-08-02T10:41:00;98077.31;;;37.31;27.55
36502;BME280;25393;46.108;3.390;2022-08-02T10:46:35;98079.81;;;37.69;26.87
36502;BME280;25393;46.108;3.390;2022-08-02T10:54:28;98091.69;;;34.17;31.21
36502;BME280;25393;46.108;3.390;2022-08-02T10:56:58;98082.59;;;35.62;29.79
36502;BME280;25393;46.108;3.390;2022-08-02T10:59:32;98081.41;;;36.80;27.61
36502;BME280;25393;46.108;3.390;2022-08-02T11:02:04;98077.91;;;37.37;26.68
36502;BME280;25393;46.108;3.390;2022-08-02T11:09:40;98066.78;;;39.10;25.06
36502;BME280;25393;46.108;3.390;2022-08-02T11:12:09;98066.13;;;38.73;23.21
36502;BME280;25393;46.108;3.390;2022-08-02T11:14:39;98062.53;;;38.45;24.06
36502;BME280;25393;46.108;3.390;2022-08-02T11:17:11;98059.00;;;36.94;25.84
36502;BME280;25393;46.108;3.390;2022-08-02T11:22:39;98051.63;;;38.00;26.19
36502;BME280;25393;46.108;3.390;2022-08-02T11:25:33;98044.13;;;37.88;24.55
36502;BME280;25393;46.108;3.390;2022-08-02T11:28:19;98035.72;;;37.85;24.95
36502;BME280;25393;46.108;3.390;2022-08-02T11:30:58;98041.63;;;37.95;25.02
36502;BME280;25393;46.108;3.390;2022-08-02T11:33:34;98047.00;;;37.92;23.63
36502;BME280;25393;46.108;3.390;2022-08-02T11:36:04;98047.38;;;38.03;24.79
36502;BME280;25393;46.108;3.390;2022-08-02T11:38:32;98041.75;;;38.51;23.81
36502;BME280;25393;46.108;3.390;2022-08-02T11:40:59;98026.78;;;38.68;23.73
36502;BME280;25393;46.108;3.390;2022-08-02T11:43:36;98027.88;;;38.63;24.60
36502;BME280;25393;46.108;3.390;2022-08-02T11:46:04;98029.19;;;39.25;24.49
36502;BME280;25393;46.108;3.390;2022-08-02T11:48:40;98041.16;;;39.72;23.26
36502;BME280;25393;46.108;3.390;2022-08-02T11:51:16;98030.00;;;40.04;23.29
36502;BME280;25393;46.108;3.390;2022-08-02T11:53:49;98040.34;;;40.22;22.61
36502;BME280;25393;46.108;3.390;2022-08-02T11:56:24;98032.25;;;40.33;22.34
36502;BME280;25393;46.108;3.390;2022-08-02T11:59:05;98041.22;;;40.61;21.73
36502;BME280;25393;46.108;3.390;2022-08-02T12:01:33;98041.06;;;40.73;21.07
36502;BME280;25393;46.108;3.390;2022-08-02T12:04:15;98044.78;;;39.76;21.53
36502;BME280;25393;46.108;3.390;2022-08-02T12:06:42;98032.47;;;39.15;22.32
36502;BME280;25393;46.108;3.390;2022-08-02T12:09:11;98020.50;;;39.11;22.25
36502;BME280;25393;46.108;3.390;2022-08-02T12:11:48;98043.72;;;38.51;23.33
36502;BME280;25393;46.108;3.390;2022-08-02T12:14:17;98021.59;;;39.22;23.01
36502;BME280;25393;46.108;3.390;2022-08-02T12:16:47;98032.31;;;39.23;22.60
36502;BME280;25393;46.108;3.390;2022-08-02T12:19:33;98035.59;;;38.97;22.35
36502;BME280;25393;46.108;3.390;2022-08-02T12:22:07;98034.41;;;37.46;24.67
36502;BME280;25393;46.108;3.390;2022-08-02T12:24:34;98020.31;;;38.48;25.05
36502;BME280;25393;46.108;3.390;2022-08-02T12:27:01;98024.66;;;39.32;23.32
36502;BME280;25393;46.108;3.390;2022-08-02T12:29:39;98026.94;;;40.09;22.43
36502;BME280;25393;46.108;3.390;2022-08-02T12:32:24;98017.19;;;38.77;22.29
36502;BME280;25393;46.108;3.390;2022-08-02T12:35:15;98013.94;;;38.87;23.84
36502;BME280;25393;46.108;3.390;2022-08-02T12:37:52;98009.28;;;39.51;23.01
36502;BME280;25393;46.108;3.390;2022-08-02T12:40:28;98011.47;;;39.14;22.91
36502;BME280;25393;46.108;3.390;2022-08-02T12:42:58;98007.88;;;39.13;22.68
36502;BME280;25393;46.108;3.390;2022-08-02T12:45:27;97998.78;;;38.29;23.29
36502;BME280;25393;46.108;3.390;2022-08-02T12:48:07;98012.56;;;39.25;23.21
36502;BME280;25393;46.108;3.390;2022-08-02T12:50:34;97989.06;;;40.16;22.87
36502;BME280;25393;46.108;3.390;2022-08-02T12:53:20;97986.28;;;41.12;22.31
36502;BME280;25393;46.108;3.390;2022-08-02T12:55:56;97994.50;;;42.00;21.72
36502;BME280;25393;46.108;3.390;2022-08-02T12:58:28;98000.78;;;42.53;20.37
36502;BME280;25393;46.108;3.390;2022-08-02T13:00:58;98001.19;;;42.21;20.35
36502;BME280;25393;46.108;3.390;2022-08-02T13:03:25;98000.25;;;42.40;20.14
36502;BME280;25393;46.108;3.390;2022-08-02T13:06:12;97988.13;;;42.59;19.86
36502;BME280;25393;46.108;3.390;2022-08-02T13:09:01;97981.78;;;42.95;19.79
36502;BME280;25393;46.108;3.390;2022-08-02T13:11:28;97981.63;;;43.18;19.99
36502;BME280;25393;46.108;3.390;2022-08-02T13:13:55;97969.06;;;42.98;18.56
36502;BME280;25393;46.108;3.390;2022-08-02T13:16:22;97980.03;;;43.13;18.05
36502;BME280;25393;46.108;3.390;2022-08-02T13:18:57;97981.34;;;43.30;19.05
36502;BME280;25393;46.108;3.390;2022-08-02T13:21:23;97965.97;;;43.47;18.85
36502;BME280;25393;46.108;3.390;2022-08-02T13:24:07;97976.44;;;43.60;18.04
36502;BME280;25393;46.108;3.390;2022-08-02T13:26:54;97973.16;;;43.48;18.42
36502;BME280;25393;46.108;3.390;2022-08-02T13:29:21;97974.75;;;43.45;18.58
36502;BME280;25393;46.108;3.390;2022-08-02T13:31:48;97981.63;;;43.58;18.56
36502;BME280;25393;46.108;3.390;2022-08-02T13:34:22;97974.72;;;43.42;18.54
36502;BME280;25393;46.108;3.390;2022-08-02T13:36:48;97973.16;;;43.07;18.40
36502;BME280;25393;46.108;3.390;2022-08-02T13:39:17;97973.66;;;42.79;18.61
36502;BME280;25393;46.108;3.390;2022-08-02T13:41:44;97979.72;;;42.85;18.61
36502;BME280;25393;46.108;3.390;2022-08-02T13:44:11;97975.34;;;42.88;19.25
36502;BME280;25393;46.108;3.390;2022-08-02T13:46:37;97977.59;;;43.12;19.08
36502;BME280;25393;46.108;3.390;2022-08-02T13:49:16;97975.97;;;43.07;18.48
36502;BME280;25393;46.108;3.390;2022-08-02T13:51:46;97960.25;;;42.89;18.26
36502;BME280;25393;46.108;3.390;2022-08-02T13:54:16;97978.66;;;42.63;19.49
36502;BME280;25393;46.108;3.390;2022-08-02T13:56:43;97976.31;;;42.69;19.73
36502;BME280;25393;46.108;3.390;2022-08-02T13:59:10;97967.03;;;42.91;19.57